Terminal Aerodrome Forecast
Issued by NWS

Home | Current Version | Previous Version | Text Only | Print | Product List | Glossary On
Versions: 1 2 3 4 5 6 7 8 9 10 11 12 13 14 15
000
FTUS46 KHNX 221730
TAFFAT
TAF
KFAT 221730Z 2218/2318 00000KT 2SM BR SCT005 OVC015
     FM222000 VRB03KT 4SM BR SCT007 BKN015
     FM230600 VRB03KT 2SM BR OVC007=

USA.gov is the U.S. government's official web portal to all federal, state and local government web resources and services.